createdAt,value
2024-03-18T00:00:44.185Z,7.71
2024-03-18T00:03:32.275Z,7.65
2024-03-18T00:06:00.409Z,7.61
2024-03-18T00:08:28.766Z,7.56
2024-03-18T00:10:57.836Z,7.52
2024-03-18T00:13:26.182Z,7.48
2024-03-18T00:15:54.373Z,7.45
2024-03-18T00:18:22.741Z,7.45
2024-03-18T00:20:51.286Z,7.44
2024-03-18T00:23:19.230Z,7.37
2024-03-18T00:25:47.597Z,7.33
2024-03-18T00:28:15.740Z,7.31
2024-03-18T00:30:46.020Z,7.29
2024-03-18T00:33:15.162Z,7.28
2024-03-18T00:35:43.304Z,7.31
2024-03-18T00:38:11.272Z,7.36
2024-03-18T00:40:39.439Z,7.38
2024-03-18T00:43:08.459Z,7.37
2024-03-18T00:45:36.863Z,7.34
2024-03-18T00:48:07.058Z,7.29
2024-03-18T00:50:35.170Z,7.27
2024-03-18T00:53:03.570Z,7.27
2024-03-18T00:55:34.970Z,7.25
2024-03-18T00:58:04.910Z,7.21
2024-03-18T01:00:33.644Z,7.21
2024-03-18T01:03:01.951Z,7.21
2024-03-18T01:05:30.634Z,7.22
2024-03-18T01:07:58.983Z,7.18
2024-03-18T01:10:27.078Z,7.17
2024-03-18T01:12:57.955Z,7.16
2024-03-18T01:15:26.806Z,7.15
2024-03-18T01:17:54.972Z,7.12
2024-03-18T01:20:23.628Z,7.10
2024-03-18T01:22:52.283Z,7.07
2024-03-18T01:25:20.619Z,7.04
2024-03-18T01:27:49.172Z,7.00
2024-03-18T01:30:17.332Z,6.97
2024-03-18T01:32:45.518Z,6.94
2024-03-18T01:35:13.754Z,6.88
2024-03-18T01:37:42.195Z,6.82
2024-03-18T01:40:12.203Z,6.79
2024-03-18T01:42:40.831Z,6.78
2024-03-18T01:45:10.570Z,6.77
2024-03-18T01:47:40.166Z,6.79
2024-03-18T01:50:10.850Z,6.82
2024-03-18T01:52:39.575Z,6.83
2024-03-18T01:55:10.104Z,6.81
2024-03-18T01:57:38.837Z,6.78
2024-03-18T02:00:25.533Z,6.76
2024-03-18T02:02:53.688Z,6.73
2024-03-18T02:05:22.884Z,6.70
2024-03-18T02:07:51.095Z,6.67
2024-03-18T02:10:20.366Z,6.65
2024-03-18T02:12:48.817Z,6.60
2024-03-18T02:15:17.894Z,6.55
2024-03-18T02:17:46.017Z,6.51
2024-03-18T02:20:14.420Z,6.48
2024-03-18T02:22:42.584Z,6.45
2024-03-18T02:25:10.823Z,6.43
2024-03-18T02:27:38.921Z,6.45
2024-03-18T02:30:09.624Z,6.47
2024-03-18T02:32:38.774Z,6.49
2024-03-18T02:35:09.289Z,6.46
2024-03-18T02:37:37.399Z,6.44
2024-03-18T02:40:09.520Z,6.40
2024-03-18T02:42:38.578Z,6.37
2024-03-18T02:45:12.094Z,6.31
2024-03-18T02:47:41.867Z,6.24
2024-03-18T02:50:11.493Z,6.15
2024-03-18T02:52:40.797Z,6.09
2024-03-18T02:55:09.685Z,6.06
2024-03-18T02:57:38.229Z,6.02
2024-03-18T03:00:07.386Z,5.96
2024-03-18T03:02:35.580Z,5.89
2024-03-18T03:05:05.290Z,5.88
2024-03-18T03:07:33.556Z,5.89
2024-03-18T03:10:05.103Z,5.90
2024-03-18T03:12:33.349Z,5.91
2024-03-18T03:15:02.321Z,5.89
2024-03-18T03:17:30.544Z,5.82
2024-03-18T03:19:58.834Z,5.77
2024-03-18T03:22:26.913Z,5.73
2024-03-18T03:24:55.532Z,5.72
2024-03-18T03:27:24.160Z,5.69
2024-03-18T03:29:52.464Z,5.62
2024-03-18T03:32:20.838Z,5.55
2024-03-18T03:34:49.026Z,5.51
2024-03-18T03:37:20.080Z,5.51
2024-03-18T03:39:48.372Z,5.52
2024-03-18T03:42:16.711Z,5.51
2024-03-18T03:44:44.665Z,5.47
2024-03-18T03:47:13.541Z,5.47
2024-03-18T03:49:41.657Z,5.46
2024-03-18T03:52:09.812Z,5.44
2024-03-18T03:54:38.187Z,5.42
2024-03-18T03:57:06.567Z,5.38
2024-03-18T03:59:34.844Z,5.37
2024-03-18T04:02:05.029Z,5.32
2024-03-18T04:04:33.305Z,5.28
2024-03-18T04:07:01.582Z,5.22
2024-03-18T04:09:29.879Z,5.19
2024-03-18T04:11:59.105Z,5.18
2024-03-18T04:14:27.687Z,5.17
2024-03-18T04:16:56.555Z,5.13
2024-03-18T04:19:25.217Z,5.09
2024-03-18T04:21:53.427Z,5.07
2024-03-18T04:24:21.548Z,5.04
2024-03-18T04:26:50.327Z,5.04
2024-03-18T04:29:18.500Z,5.07
2024-03-18T04:31:47.028Z,5.08
2024-03-18T04:34:15.119Z,5.07
2024-03-18T04:36:43.429Z,5.08
2024-03-18T04:39:12.340Z,5.10
2024-03-18T04:41:40.789Z,5.13
2024-03-18T04:44:09.132Z,5.13
2024-03-18T04:46:37.334Z,5.11
2024-03-18T04:49:05.395Z,5.14
2024-03-18T04:51:34.080Z,5.19
2024-03-18T04:54:02.160Z,5.24
2024-03-18T04:56:32.909Z,5.32
2024-03-18T04:59:01.266Z,5.39
2024-03-18T05:01:29.756Z,5.43
2024-03-18T05:03:57.887Z,5.49
2024-03-18T05:06:27.334Z,5.57
2024-03-18T05:08:55.979Z,5.63
2024-03-18T05:11:25.232Z,5.65
2024-03-18T05:13:54.072Z,5.66
2024-03-18T05:16:24.700Z,5.71
2024-03-18T05:18:52.992Z,5.92
2024-03-18T05:21:21.298Z,6.10
2024-03-18T05:23:50.684Z,6.18
2024-03-18T05:26:18.828Z,6.24
2024-03-18T05:28:50.655Z,6.40
2024-03-18T05:31:20.557Z,6.46
2024-03-18T05:33:48.885Z,6.61
2024-03-18T05:36:17.417Z,6.69
2024-03-18T05:38:45.925Z,6.79
2024-03-18T05:41:15.246Z,6.80
2024-03-18T05:43:43.340Z,6.93
2024-03-18T05:46:14.012Z,7.02
2024-03-18T05:48:48.429Z,6.99
2024-03-18T05:51:17.411Z,7.00
2024-03-18T05:53:46.359Z,7.09
2024-03-18T05:56:15.226Z,7.10
2024-03-18T05:58:43.993Z,7.07
2024-03-18T06:01:13.853Z,6.98
2024-03-18T06:03:43.716Z,6.93
2024-03-18T06:06:12.998Z,6.88
2024-03-18T06:08:41.308Z,6.88
2024-03-18T06:11:09.503Z,6.86
2024-03-18T06:13:37.869Z,6.83
2024-03-18T06:16:06.148Z,6.88
2024-03-18T06:18:34.040Z,6.89
2024-03-18T06:21:02.162Z,6.94
2024-03-18T06:23:34.435Z,7.02
2024-03-18T06:26:04.361Z,7.08
2024-03-18T06:28:37.338Z,7.21
2024-03-18T06:31:07.165Z,7.32
2024-03-18T06:33:35.705Z,7.41
2024-03-18T06:36:10.672Z,7.45
2024-03-18T06:38:41.933Z,7.50
2024-03-18T06:41:11.241Z,7.60
2024-03-18T06:43:40.387Z,7.74
2024-03-18T06:46:13.215Z,7.85
2024-03-18T06:48:41.605Z,7.90
2024-03-18T06:51:15.997Z,7.86
2024-03-18T06:53:44.283Z,7.82
2024-03-18T06:56:13.254Z,7.85
2024-03-18T06:58:42.133Z,7.91
2024-03-18T07:01:12.449Z,7.92
2024-03-18T07:03:43.000Z,7.96
2024-03-18T07:06:13.346Z,7.94
2024-03-18T07:08:41.885Z,7.99
2024-03-18T07:11:10.458Z,8.11
2024-03-18T07:13:40.145Z,8.29
2024-03-18T07:16:13.711Z,8.37
2024-03-18T07:18:43.557Z,8.43
2024-03-18T07:21:12.330Z,8.46
2024-03-18T07:23:41.041Z,8.50
2024-03-18T07:26:09.691Z,8.50
2024-03-18T07:28:38.528Z,8.49
2024-03-18T07:31:09.695Z,8.48
2024-03-18T07:33:38.142Z,8.48
2024-03-18T07:36:06.850Z,8.45
2024-03-18T07:38:35.184Z,8.49
2024-03-18T07:41:04.704Z,8.54
2024-03-18T07:43:33.203Z,8.56
2024-03-18T07:46:02.053Z,8.56
2024-03-18T07:48:30.314Z,8.64
2024-03-18T07:50:58.924Z,8.63
2024-03-18T07:53:28.321Z,8.64
2024-03-18T07:56:01.928Z,8.68
2024-03-18T07:58:30.399Z,8.76
2024-03-18T08:00:59.229Z,8.89
2024-03-18T08:03:31.267Z,8.98
2024-03-18T08:06:09.397Z,9.03
2024-03-18T08:08:38.235Z,9.14
2024-03-18T08:11:08.110Z,9.27
2024-03-18T08:13:36.741Z,9.40
2024-03-18T08:16:06.451Z,9.44
2024-03-18T08:18:37.079Z,9.48
2024-03-18T08:21:23.542Z,9.50
2024-03-18T08:23:54.521Z,9.54
2024-03-18T08:26:24.965Z,9.56
2024-03-18T08:28:53.764Z,9.55
2024-03-18T08:31:22.305Z,9.58
2024-03-18T08:34:04.404Z,9.53
2024-03-18T08:36:34.641Z,9.55
2024-03-18T08:39:04.653Z,9.59
2024-03-18T08:41:33.472Z,9.65
2024-03-18T08:44:01.778Z,9.64
2024-03-18T08:46:30.499Z,9.63
2024-03-18T08:49:01.324Z,9.63
2024-03-18T08:51:31.954Z,9.78
2024-03-18T08:54:00.583Z,9.97
2024-03-18T08:56:31.255Z,10.04
2024-03-18T08:59:02.954Z,10.04
2024-03-18T09:01:33.889Z,9.97
2024-03-18T09:04:04.735Z,10.00
2024-03-18T09:06:38.229Z,10.07
2024-03-18T09:09:07.480Z,10.11
2024-03-18T09:11:35.658Z,10.08
2024-03-18T09:14:06.558Z,10.10
2024-03-18T09:16:35.137Z,10.16
2024-03-18T09:19:03.958Z,10.29
2024-03-18T09:21:32.366Z,10.43
2024-03-18T09:24:00.861Z,10.52
2024-03-18T09:26:29.917Z,10.59
2024-03-18T09:28:59.380Z,10.62
2024-03-18T09:31:28.687Z,10.69
2024-03-18T09:33:58.966Z,10.81
2024-03-18T09:36:28.514Z,10.82
2024-03-18T09:38:56.662Z,10.79
2024-03-18T09:41:28.001Z,10.86
2024-03-18T09:43:57.559Z,10.96
2024-03-18T09:46:30.057Z,11.19
2024-03-18T09:49:00.040Z,11.37
2024-03-18T09:51:32.680Z,11.49
2024-03-18T09:54:02.297Z,11.46
2024-03-18T09:56:31.314Z,11.55
2024-03-18T09:58:59.592Z,11.61
2024-03-18T10:01:29.942Z,11.65
2024-03-18T10:03:59.830Z,11.76
2024-03-18T10:06:28.798Z,11.77
2024-03-18T10:08:59.865Z,11.81
2024-03-18T10:11:29.962Z,11.82
2024-03-18T10:13:59.505Z,11.78
2024-03-18T10:16:29.297Z,11.77
2024-03-18T10:18:57.568Z,11.85
2024-03-18T10:21:27.799Z,11.89
2024-03-18T10:23:57.158Z,11.84
2024-03-18T10:26:26.656Z,11.80
2024-03-18T10:28:55.350Z,11.74
2024-03-18T10:31:24.288Z,11.66
2024-03-18T10:33:55.516Z,11.62
2024-03-18T10:36:31.240Z,11.61
2024-03-18T10:39:10.135Z,11.62
2024-03-18T10:41:40.723Z,11.65
2024-03-18T10:44:24.407Z,11.67
2024-03-18T10:46:55.962Z,11.53
2024-03-18T10:49:24.526Z,11.46
2024-03-18T10:51:54.225Z,11.47
2024-03-18T10:54:25.055Z,11.36
2024-03-18T10:56:54.335Z,11.26
2024-03-18T10:59:24.596Z,11.24
2024-03-18T11:01:55.505Z,11.15
2024-03-18T11:05:08.342Z,11.06
2024-03-18T11:07:38.696Z,10.91
2024-03-18T11:10:14.753Z,10.84
2024-03-18T11:12:43.420Z,10.75
2024-03-18T11:15:11.068Z,10.76
2024-03-18T11:17:50.662Z,10.86
2024-03-18T11:20:21.743Z,10.93
2024-03-18T11:22:56.456Z,10.97
2024-03-18T11:25:27.570Z,10.97
2024-03-18T11:27:56.535Z,10.96
2024-03-18T11:30:26.514Z,11.02
2024-03-18T11:32:54.315Z,11.09
2024-03-18T11:35:22.088Z,11.11
2024-03-18T11:37:49.762Z,11.19
2024-03-18T11:40:19.459Z,11.21
2024-03-18T11:42:47.321Z,11.24
2024-03-18T11:45:22.708Z,11.26
2024-03-18T11:48:05.589Z,11.23
2024-03-18T11:50:37.023Z,11.17
2024-03-18T11:53:08.015Z,11.13
2024-03-18T11:55:40.832Z,11.14
2024-03-18T11:58:13.576Z,11.09
2024-03-18T12:00:44.597Z,11.01
2024-03-18T12:03:16.204Z,11.15
2024-03-18T12:05:46.893Z,11.27
2024-03-18T12:08:25.622Z,11.26
2024-03-18T12:10:55.549Z,11.28
2024-03-18T12:13:44.659Z,11.22
2024-03-18T12:16:15.037Z,10.97
2024-03-18T12:18:44.792Z,10.90
2024-03-18T12:21:12.249Z,10.92
2024-03-18T12:23:57.646Z,10.92
2024-03-18T12:26:44.215Z,10.82
2024-03-18T12:29:23.206Z,10.85
2024-03-18T12:31:53.176Z,10.82
2024-03-18T12:34:20.471Z,10.66
2024-03-18T12:36:48.165Z,10.57
2024-03-18T12:39:16.501Z,10.58
2024-03-18T12:41:43.709Z,10.54
2024-03-18T12:44:12.147Z,10.46
2024-03-18T12:46:39.584Z,10.37
2024-03-18T12:49:09.951Z,10.23
2024-03-18T12:51:37.128Z,10.14
2024-03-18T12:54:08.211Z,10.13
2024-03-18T12:56:36.515Z,10.19
2024-03-18T12:59:04.894Z,10.23
2024-03-18T13:01:32.731Z,10.21
2024-03-18T13:04:00.501Z,10.18
2024-03-18T13:06:28.012Z,10.15
2024-03-18T13:08:56.578Z,10.14
2024-03-18T13:11:24.032Z,10.13
2024-03-18T13:13:51.122Z,10.21
2024-03-18T13:16:18.236Z,10.30
2024-03-18T13:18:46.919Z,10.40
2024-03-18T13:21:14.360Z,10.38
2024-03-18T13:23:42.056Z,10.35
2024-03-18T13:26:10.857Z,10.18
2024-03-18T13:28:38.675Z,10.10
2024-03-18T13:31:22.876Z,10.04
2024-03-18T13:33:53.435Z,10.01
2024-03-18T13:36:21.074Z,9.96
2024-03-18T13:38:48.850Z,9.95
2024-03-18T13:41:17.602Z,9.88
2024-03-18T13:43:44.847Z,9.83
2024-03-18T13:46:12.447Z,9.75
2024-03-18T13:48:40.126Z,9.68
2024-03-18T13:51:12.647Z,9.59
2024-03-18T13:53:41.155Z,9.56
2024-03-18T13:56:08.401Z,9.55
2024-03-18T13:58:37.152Z,9.54
2024-03-18T14:01:10.075Z,9.50
2024-03-18T14:03:38.561Z,9.49
2024-03-18T14:06:07.200Z,9.44
2024-03-18T14:08:35.605Z,9.37
2024-03-18T14:11:04.688Z,9.28
2024-03-18T14:13:35.225Z,9.18
2024-03-18T14:16:05.760Z,9.12
2024-03-18T14:18:36.073Z,9.11
2024-03-18T14:21:04.207Z,9.10
2024-03-18T14:23:31.143Z,9.07
2024-03-18T14:25:58.683Z,9.01
2024-03-18T14:28:26.795Z,8.99
2024-03-18T14:30:53.828Z,9.00
2024-03-18T14:33:21.206Z,9.00
2024-03-18T14:35:48.868Z,8.95
2024-03-18T14:38:16.195Z,8.90
2024-03-18T14:40:43.992Z,8.83
2024-03-18T14:43:11.634Z,8.82
2024-03-18T14:45:41.095Z,8.78
2024-03-18T14:48:14.110Z,8.71
2024-03-18T14:50:42.963Z,8.66
2024-03-18T14:53:10.492Z,8.66
2024-03-18T14:55:38.938Z,8.66
2024-03-18T14:58:08.783Z,8.63
2024-03-18T15:00:36.424Z,8.61
2024-03-18T15:03:03.946Z,8.66
2024-03-18T15:05:31.057Z,8.66
2024-03-18T15:07:58.443Z,8.63
2024-03-18T15:10:25.869Z,8.62
2024-03-18T15:12:53.222Z,8.53
2024-03-18T15:15:20.548Z,8.51
2024-03-18T15:17:56.494Z,8.48
2024-03-18T15:20:23.458Z,8.46
2024-03-18T15:22:50.510Z,8.44
2024-03-18T15:25:37.706Z,8.43
2024-03-18T15:28:10.197Z,8.37
2024-03-18T15:30:38.739Z,8.34
2024-03-18T15:33:08.045Z,8.33
2024-03-18T15:35:38.114Z,8.31
2024-03-18T15:38:05.353Z,8.25
2024-03-18T15:40:33.709Z,8.26
2024-03-18T15:43:01.435Z,8.28
2024-03-18T15:45:28.802Z,8.28
2024-03-18T15:47:55.741Z,8.28
2024-03-18T15:50:22.962Z,8.27
2024-03-18T15:52:51.629Z,8.25
2024-03-18T15:55:18.520Z,8.25
2024-03-18T15:57:45.899Z,8.24
2024-03-18T16:00:20.415Z,8.22
2024-03-18T16:02:47.526Z,8.14
2024-03-18T16:05:15.219Z,8.11
2024-03-18T16:07:43.013Z,8.08
2024-03-18T16:10:11.104Z,8.06
2024-03-18T16:12:38.871Z,8.04
2024-03-18T16:15:10.480Z,8.03
2024-03-18T16:17:38.925Z,8.01
2024-03-18T16:20:11.815Z,7.97
2024-03-18T16:22:39.058Z,7.93
2024-03-18T16:25:06.401Z,7.90
2024-03-18T16:27:33.418Z,7.84
2024-03-18T16:30:00.915Z,7.80
2024-03-18T16:32:28.203Z,7.80
2024-03-18T16:34:55.158Z,7.79
2024-03-18T16:37:23.237Z,7.80
2024-03-18T16:39:50.185Z,7.80
2024-03-18T16:42:18.389Z,7.81
2024-03-18T16:44:46.072Z,7.77
2024-03-18T16:47:13.160Z,7.74
2024-03-18T16:49:40.697Z,7.71
2024-03-18T16:52:07.975Z,7.69
2024-03-18T16:54:36.236Z,7.67
2024-03-18T16:57:04.525Z,7.65
2024-03-18T16:59:31.772Z,7.63
2024-03-18T17:01:59.006Z,7.60
2024-03-18T17:04:26.238Z,7.58
2024-03-18T17:06:54.239Z,7.55
2024-03-18T17:09:25.387Z,7.52
2024-03-18T17:11:52.345Z,7.49
2024-03-18T17:14:23.254Z,7.41
2024-03-18T17:16:51.144Z,7.39
2024-03-18T17:19:18.720Z,7.36
2024-03-18T17:21:50.039Z,7.36
2024-03-18T17:24:17.460Z,7.32
2024-03-18T17:26:44.936Z,7.30
2024-03-18T17:29:12.985Z,7.28
2024-03-18T17:31:42.377Z,7.29
2024-03-18T17:34:10.266Z,7.29
2024-03-18T17:37:03.447Z,7.27
2024-03-18T17:39:24.650Z,7.26
2024-03-18T17:41:51.642Z,7.23
2024-03-18T17:44:20.248Z,7.20
2024-03-18T17:46:49.987Z,7.18
2024-03-18T17:49:16.986Z,7.15
2024-03-18T17:51:44.059Z,7.11
2024-03-18T17:54:11.077Z,7.08
2024-03-18T17:56:38.467Z,7.04
2024-03-18T17:59:09.875Z,7.02
2024-03-18T18:01:39.839Z,7.02
2024-03-18T18:04:06.759Z,7.00
2024-03-18T18:06:34.116Z,7.00
2024-03-18T18:09:06.045Z,7.00
2024-03-18T18:11:33.997Z,6.98
2024-03-18T18:14:01.017Z,6.96
2024-03-18T18:16:28.235Z,6.92
2024-03-18T18:18:55.496Z,6.91
2024-03-18T18:21:22.787Z,6.85
2024-03-18T18:23:53.903Z,6.83
2024-03-18T18:26:21.064Z,6.83
2024-03-18T18:28:48.690Z,6.82
2024-03-18T18:31:15.663Z,6.78
2024-03-18T18:33:44.420Z,6.78
2024-03-18T18:36:12.181Z,6.79
2024-03-18T18:38:44.237Z,6.77
2024-03-18T18:41:11.799Z,6.76
2024-03-18T18:43:39.003Z,6.78
2024-03-18T18:46:06.148Z,6.78
2024-03-18T18:48:37.265Z,6.76
2024-03-18T18:51:06.881Z,6.67
2024-03-18T18:53:38.437Z,6.66
2024-03-18T18:56:06.366Z,6.62
2024-03-18T18:58:33.862Z,6.62
2024-03-18T19:01:01.116Z,6.59
2024-03-18T19:03:28.158Z,6.55
2024-03-18T19:05:55.491Z,6.53
2024-03-18T19:08:22.463Z,6.50
2024-03-18T19:10:49.445Z,6.50
2024-03-18T19:13:20.545Z,6.51
2024-03-18T19:15:48.128Z,6.52
2024-03-18T19:18:15.427Z,6.50
2024-03-18T19:20:43.059Z,6.50
2024-03-18T19:23:10.153Z,6.50
2024-03-18T19:25:37.320Z,6.51
2024-03-18T19:28:09.841Z,6.50
2024-03-18T19:30:39.613Z,6.44
2024-03-18T19:33:07.506Z,6.39
2024-03-18T19:35:38.005Z,6.38
2024-03-18T19:38:05.034Z,6.38
2024-03-18T19:40:32.153Z,6.34
2024-03-18T19:43:01.006Z,6.32
2024-03-18T19:45:28.551Z,6.28
2024-03-18T19:47:55.714Z,6.28
2024-03-18T19:50:22.897Z,6.26
2024-03-18T19:52:50.548Z,6.27
2024-03-18T19:55:18.364Z,6.26
2024-03-18T19:57:46.133Z,6.23
2024-03-18T20:00:13.742Z,6.24
2024-03-18T20:02:42.431Z,6.24
2024-03-18T20:05:13.817Z,6.22
2024-03-18T20:07:41.130Z,6.21
2024-03-18T20:10:10.235Z,6.24
2024-03-18T20:12:44.924Z,6.21
2024-03-18T20:15:14.265Z,6.17
2024-03-18T20:17:41.464Z,6.12
2024-03-18T20:20:11.462Z,6.10
2024-03-18T20:22:43.696Z,6.08
2024-03-18T20:25:12.864Z,6.04
2024-03-18T20:27:46.805Z,5.99
2024-03-18T20:30:19.840Z,5.89
2024-03-18T20:32:47.716Z,5.84
2024-03-18T20:35:15.209Z,5.81
2024-03-18T20:37:46.804Z,5.78
2024-03-18T20:40:20.329Z,5.78
2024-03-18T20:42:47.611Z,5.77
2024-03-18T20:45:16.475Z,5.77
2024-03-18T20:47:43.829Z,5.76
2024-03-18T20:50:12.920Z,5.73
2024-03-18T20:52:41.559Z,5.69
2024-03-18T20:55:15.326Z,5.66
2024-03-18T20:57:43.706Z,5.62
2024-03-18T21:00:17.878Z,5.57
2024-03-18T21:02:46.158Z,5.54
2024-03-18T21:05:14.968Z,5.51
2024-03-18T21:07:49.852Z,5.50
2024-03-18T21:10:19.920Z,5.47
2024-03-18T21:12:49.205Z,5.44
2024-03-18T21:15:17.484Z,5.42
2024-03-18T21:17:45.016Z,5.38
2024-03-18T21:20:14.545Z,5.35
2024-03-18T21:22:45.688Z,5.35
2024-03-18T21:25:14.133Z,5.32
2024-03-18T21:27:42.777Z,5.30
2024-03-18T21:30:10.485Z,5.27
2024-03-18T21:32:38.590Z,5.23
2024-03-18T21:35:06.689Z,5.20
2024-03-18T21:37:34.257Z,5.18
2024-03-18T21:40:01.766Z,5.14
2024-03-18T21:42:29.033Z,5.11
2024-03-18T21:44:56.537Z,5.07
2024-03-18T21:47:23.857Z,5.05
2024-03-18T21:49:50.975Z,5.06
2024-03-18T21:52:18.028Z,5.05
2024-03-18T21:54:45.916Z,5.04
2024-03-18T21:57:13.509Z,5.05
2024-03-18T21:59:40.823Z,5.04
2024-03-18T22:02:08.302Z,5.02
2024-03-18T22:04:35.530Z,5.01
2024-03-18T22:07:04.755Z,4.98
2024-03-18T22:09:35.919Z,4.98
2024-03-18T22:12:04.794Z,4.94
2024-03-18T22:14:38.043Z,4.92
2024-03-18T22:17:11.784Z,4.89
2024-03-18T22:19:38.869Z,4.89
2024-03-18T22:22:06.229Z,4.87
2024-03-18T22:24:33.157Z,4.83
2024-03-18T22:27:00.237Z,4.81
2024-03-18T22:29:27.327Z,4.80
2024-03-18T22:31:54.444Z,4.80
2024-03-18T22:34:21.473Z,4.80
2024-03-18T22:36:48.699Z,4.76
2024-03-18T22:39:16.113Z,4.70
2024-03-18T22:41:43.027Z,4.68
2024-03-18T22:44:09.927Z,4.67
2024-03-18T22:46:37.678Z,4.63
2024-03-18T22:49:05.022Z,4.56
2024-03-18T22:51:33.116Z,4.49
2024-03-18T22:54:00.167Z,4.42
2024-03-18T22:56:27.760Z,4.37
2024-03-18T22:58:54.928Z,4.31
2024-03-18T23:01:23.278Z,4.27
2024-03-18T23:03:51.511Z,4.22
2024-03-18T23:06:18.944Z,4.18
2024-03-18T23:08:46.202Z,4.14
2024-03-18T23:11:13.152Z,4.11
2024-03-18T23:13:40.107Z,4.08
2024-03-18T23:16:07.458Z,4.03
2024-03-18T23:18:34.463Z,3.96
2024-03-18T23:21:04.580Z,3.89
2024-03-18T23:23:31.803Z,3.89
2024-03-18T23:26:09.787Z,3.86
2024-03-18T23:28:38.423Z,3.82
2024-03-18T23:31:06.078Z,3.79
2024-03-18T23:33:33.919Z,3.74
2024-03-18T23:36:03.622Z,3.69
2024-03-18T23:38:32.782Z,3.64
2024-03-18T23:41:00.102Z,3.63
2024-03-18T23:43:30.652Z,3.62
2024-03-18T23:45:57.804Z,3.52
2024-03-18T23:48:24.689Z,3.42
2024-03-18T23:50:51.798Z,3.38
2024-03-18T23:53:20.142Z,3.34
2024-03-18T23:55:47.215Z,3.29
2024-03-18T23:58:14.559Z,3.26
